Time;durP1;ratioP1;P1;durP2;ratioP2;P2;SDS_P1;SDS_P2;PMS_P1;PMS_P2;Temp;Humidity;BMP_temperature;BMP_pressure;BME280_temperature;BME280_humidity;BME280_pressure;Samples;Min_cycle;Max_cycle;Signal;HPM_P1;HPM_P2
2021/03/26 00:00:32;;;;;;;103.78;41.42;;;5.80;99.90;;;;;;4975077;28;20030;-67
2021/03/26 00:02:57;;;;;;;101.57;40.97;;;5.80;99.90;;;;;;4975765;28;20541;-68
2021/03/26 00:05:23;;;;;;;95.40;38.65;;;5.80;99.90;;;;;;4974797;28;20120;-67
2021/03/26 00:07:49;;;;;;;87.45;37.88;;;5.70;99.90;;;;;;4975441;28;20077;-67
2021/03/26 00:10:15;;;;;;;85.75;37.80;;;5.60;99.90;;;;;;4975168;28;20825;-67
2021/03/26 00:12:42;;;;;;;87.15;37.58;;;5.60;99.90;;;;;;4965398;28;20045;-66
2021/03/26 00:15:09;;;;;;;101.30;39.30;;;5.50;99.90;;;;;;4976941;28;20034;-67
2021/03/26 00:17:35;;;;;;;102.22;42.50;;;5.50;99.90;;;;;;4978910;28;20096;-67
2021/03/26 00:20:01;;;;;;;103.70;41.70;;;5.40;99.90;;;;;;4961830;28;20053;-67
2021/03/26 00:22:27;;;;;;;111.00;42.55;;;5.40;99.90;;;;;;4959248;28;20116;-67
2021/03/26 00:24:53;;;;;;;103.63;39.45;;;5.40;99.90;;;;;;4961243;28;20066;-66
2021/03/26 00:27:18;;;;;;;96.47;39.00;;;5.30;99.90;;;;;;4978571;28;20042;-67
2021/03/26 00:29:44;;;;;;;84.45;36.10;;;5.30;99.90;;;;;;4979187;28;20026;-67
2021/03/26 00:32:10;;;;;;;88.78;38.45;;;5.30;99.90;;;;;;4978810;28;20033;-67
2021/03/26 00:34:36;;;;;;;92.22;40.65;;;5.20;99.90;;;;;;4978587;28;20034;-67
2021/03/26 00:37:03;;;;;;;105.80;41.65;;;5.30;99.90;;;;;;4978367;28;20030;-67
2021/03/26 00:39:29;;;;;;;93.93;40.70;;;5.50;99.90;;;;;;4978302;28;20030;-67
2021/03/26 00:41:55;;;;;;;103.55;41.80;;;5.50;99.90;;;;;;4977595;28;20701;-67
2021/03/26 00:44:21;;;;;;;94.47;39.38;;;5.50;99.90;;;;;;4978094;28;20042;-67
2021/03/26 00:46:47;;;;;;;100.07;40.35;;;5.40;99.90;;;;;;4978258;28;20038;-67
2021/03/26 00:49:12;;;;;;;95.80;37.78;;;5.40;99.90;;;;;;4978288;28;20034;-67
2021/03/26 00:51:40;;;;;;;86.68;37.63;;;5.50;99.90;;;;;;4975947;28;20125;-67
2021/03/26 00:54:07;;;;;;;89.45;36.70;;;5.50;99.90;;;;;;4978209;28;20032;-67
2021/03/26 00:56:33;;;;;;;83.50;35.75;;;5.50;99.90;;;;;;4959604;28;20837;-67
2021/03/26 00:58:58;;;;;;;79.70;34.25;;;5.50;99.90;;;;;;4978450;28;20041;-67
2021/03/26 01:01:25;;;;;;;84.65;37.15;;;5.50;99.90;;;;;;4977935;28;20494;-67
2021/03/26 01:03:50;;;;;;;81.80;35.53;;;5.50;99.90;;;;;;4978543;28;20037;-67
2021/03/26 01:06:16;;;;;;;88.72;36.67;;;5.50;99.90;;;;;;4977449;28;20031;-67
2021/03/26 01:08:43;;;;;;;82.13;35.08;;;5.70;99.90;;;;;;4978455;28;20057;-67
2021/03/26 01:11:22;;;;;;;88.13;37.13;;;5.90;99.90;;;;;;4960636;28;20034;-67
2021/03/26 01:13:49;;;;;;;79.55;35.13;;;5.90;99.90;;;;;;4976215;28;20038;-67
2021/03/26 01:16:16;;;;;;;75.70;33.50;;;5.90;99.90;;;;;;4977766;28;20117;-67
2021/03/26 01:18:45;;;;;;;80.65;33.90;;;6.00;99.90;;;;;;4974791;28;20034;-67
2021/03/26 01:21:41;;;;;;;78.68;33.05;;;6.00;99.90;;;;;;4973941;28;20682;-66
2021/03/26 01:24:11;;;;;;;76.55;32.03;;;6.00;99.90;;;;;;4957955;28;20506;-67
2021/03/26 01:26:37;;;;;;;70.22;31.63;;;5.90;99.90;;;;;;4976382;28;20041;-67
2021/03/26 01:29:18;;;;;;;78.03;31.98;;;5.90;99.90;;;;;;4958805;28;20057;-67
2021/03/26 01:32:05;;;;;;;69.35;30.83;;;5.90;99.90;;;;;;4976612;28;20581;-67
2021/03/26 01:34:33;;;;;;;73.93;31.63;;;5.90;99.90;;;;;;4946497;28;20109;-67
2021/03/26 01:37:03;;;;;;;70.35;32.00;;;5.90;99.90;;;;;;4977535;28;20030;-67
2021/03/26 01:39:38;;;;;;;75.80;32.60;;;5.90;99.90;;;;;;4959538;28;20027;-67
2021/03/26 01:42:20;;;;;;;80.03;35.45;;;5.90;99.90;;;;;;4959340;28;20034;-67
2021/03/26 01:44:47;;;;;;;92.60;37.97;;;6.00;99.90;;;;;;4977772;28;20079;-67
2021/03/26 01:47:19;;;;;;;69.68;32.50;;;6.10;99.90;;;;;;4959106;28;20045;-67
2021/03/26 01:49:44;;;;;;;73.47;31.88;;;6.10;99.90;;;;;;4959609;28;20034;-67
2021/03/26 01:52:10;;;;;;;77.05;33.03;;;6.00;99.90;;;;;;4964864;28;20975;-67
2021/03/26 01:54:37;;;;;;;73.05;32.05;;;6.00;99.90;;;;;;4966320;28;20988;-67
2021/03/26 01:57:10;;;;;;;75.95;32.47;;;6.00;99.90;;;;;;4976317;28;20108;-67
2021/03/26 01:59:40;;;;;;;79.45;33.17;;;6.00;99.90;;;;;;4957990;28;20038;-67
2021/03/26 02:02:14;;;;;;;71.55;31.98;;;6.10;99.90;;;;;;4976927;28;20077;-67
2021/03/26 02:05:10;;;;;;;69.20;30.73;;;6.10;99.90;;;;;;4974104;28;20038;-67
2021/03/26 02:07:41;;;;;;;82.30;32.88;;;6.20;99.90;;;;;;4959669;28;20145;-68
2021/03/26 02:10:14;;;;;;;79.78;34.10;;;6.20;99.90;;;;;;4974630;28;20478;-67
2021/03/26 02:12:42;;;;;;;84.47;36.55;;;6.20;99.90;;;;;;4973726;28;20097;-67
2021/03/26 02:15:25;;;;;;;87.63;39.40;;;6.30;99.90;;;;;;4971207;28;20026;-67
2021/03/26 02:17:51;;;;;;;87.03;37.05;;;6.40;99.90;;;;;;4974680;28;20034;-67
2021/03/26 02:20:34;;;;;;;80.90;34.60;;;6.50;99.90;;;;;;4977230;28;20113;-67
2021/03/26 02:23:11;;;;;;;86.05;35.90;;;6.30;99.90;;;;;;4958818;28;20030;-67
2021/03/26 02:25:46;;;;;;;77.85;35.40;;;6.20;99.90;;;;;;4975016;28;20040;-68
2021/03/26 02:28:14;;;;;;;81.47;34.55;;;6.00;99.90;;;;;;4976842;28;20028;-67
2021/03/26 02:30:48;;;;;;;82.13;36.15;;;5.90;99.90;;;;;;4971754;28;20339;-67
2021/03/26 02:33:16;;;;;;;84.93;36.05;;;5.90;99.90;;;;;;4951575;28;20049;-67
2021/03/26 02:35:48;;;;;;;77.90;33.75;;;5.90;99.90;;;;;;4977168;28;20030;-67
2021/03/26 02:38:35;;;;;;;82.13;35.72;;;6.00;99.90;;;;;;4962017;28;20062;-67
2021/03/26 02:41:39;;;;;;;84.53;35.33;;;5.90;99.90;;;;;;4977240;28;20057;-67
2021/03/26 02:44:42;;;;;;;81.20;34.75;;;5.90;99.90;;;;;;4961135;28;20134;-67
2021/03/26 02:47:36;;;;;;;83.55;35.53;;;5.90;99.90;;;;;;4971898;28;20047;-67
2021/03/26 02:50:20;;;;;;;85.40;35.53;;;6.00;99.90;;;;;;4974184;28;20045;-67
2021/03/26 02:53:30;;;;;;;83.30;36.63;;;6.00;99.90;;;;;;4957384;28;20116;-67
2021/03/26 02:56:22;;;;;;;79.55;33.17;;;6.00;99.90;;;;;;4972850;28;20050;-67
2021/03/26 02:59:02;;;;;;;;;;;6.00;99.90;;;;;;4971991;28;20030;-67
2021/03/26 03:01:41;;;;;;;78.68;34.08;;;6.00;99.90;;;;;;4974474;28;20856;-67
2021/03/26 03:04:15;;;;;;;79.72;34.08;;;6.10;99.90;;;;;;4976059;28;20046;-67
2021/03/26 03:06:47;;;;;;;85.78;33.88;;;6.20;99.90;;;;;;4976243;28;20030;-67
2021/03/26 03:09:16;;;;;;;79.18;35.10;;;6.20;99.90;;;;;;4976633;28;20185;-67
2021/03/26 03:12:09;;;;;;;78.20;34.47;;;6.30;99.90;;;;;;4958697;28;20058;-67
2021/03/26 03:15:14;;;;;;;74.70;34.20;;;6.30;99.90;;;;;;4955385;28;20536;-67
2021/03/26 03:18:15;;;;;;;78.93;36.10;;;6.40;99.90;;;;;;4957691;28;20470;-67
2021/03/26 03:20:52;;;;;;;83.65;35.95;;;6.40;99.90;;;;;;4976380;28;20849;-67
2021/03/26 03:24:04;;;;;;;78.60;34.45;;;6.40;99.90;;;;;;4958735;28;20097;-67
2021/03/26 03:26:53;;;;;;;75.60;32.55;;;6.40;99.90;;;;;;4849885;29;20039;-67
2021/03/26 03:29:31;;;;;;;77.55;34.42;;;6.50;99.90;;;;;;4938129;28;20046;-67
2021/03/26 03:32:57;;;;;;;72.30;32.47;;;6.50;99.90;;;;;;4965131;28;20050;-67
2021/03/26 03:35:54;;;;;;;72.93;33.15;;;6.50;99.90;;;;;;4938113;28;20065;-67
2021/03/26 03:38:39;;;;;;;71.63;33.97;;;6.40;99.90;;;;;;4975574;28;20062;-67
2021/03/26 03:41:11;;;;;;;75.50;32.90;;;6.40;99.90;;;;;;4958037;28;20124;-67
2021/03/26 03:43:54;;;;;;;75.07;32.78;;;6.30;99.90;;;;;;4975313;28;20103;-67
2021/03/26 03:46:41;;;;;;;71.38;31.40;;;6.40;99.90;;;;;;4955913;28;20034;-67
2021/03/26 03:49:45;;;;;;;78.20;32.60;;;6.40;99.90;;;;;;4959048;28;20042;-67
2021/03/26 03:52:18;;;;;;;75.80;33.83;;;6.50;99.90;;;;;;4962329;28;20080;-67
2021/03/26 03:54:51;;;;;;;75.88;32.08;;;6.50;99.90;;;;;;4962001;28;20065;-67
2021/03/26 03:57:32;;;;;;;62.55;29.98;;;6.50;99.90;;;;;;4945762;28;20811;-67
2021/03/26 04:00:19;;;;;;;67.18;31.45;;;6.60;99.90;;;;;;4963655;28;20711;-67
2021/03/26 04:03:20;;;;;;;72.88;32.17;;;6.60;99.90;;;;;;4941714;28;20038;-66
2021/03/26 04:05:52;;;;;;;71.10;31.48;;;6.60;99.90;;;;;;4977003;28;20034;-66
2021/03/26 04:08:29;;;;;;;77.78;33.88;;;6.70;99.90;;;;;;4977516;28;20038;-66
2021/03/26 04:11:13;;;;;;;82.40;35.70;;;6.80;99.90;;;;;;4967273;28;20578;-66
2021/03/26 04:13:46;;;;;;;85.10;36.58;;;6.90;99.90;;;;;;4961535;28;20112;-66
2021/03/26 04:16:18;;;;;;;89.50;36.42;;;6.90;99.90;;;;;;4961712;28;20061;-66
2021/03/26 04:18:51;;;;;;;87.05;38.10;;;6.90;99.90;;;;;;4975523;28;20030;-66
2021/03/26 04:21:41;;;;;;;99.53;39.28;;;6.80;99.90;;;;;;4964297;28;20046;-66
2021/03/26 04:24:20;;;;;;;99.82;38.53;;;6.70;99.90;;;;;;4942049;28;20046;-67
2021/03/26 04:27:31;;;;;;;100.50;39.28;;;6.80;99.90;;;;;;4970474;28;20034;-67
2021/03/26 04:30:28;;;;;;;96.43;39.85;;;6.80;99.90;;;;;;4976664;28;20176;-67
2021/03/26 04:33:20;;;;;;;97.20;41.05;;;6.90;99.90;;;;;;4959531;28;20073;-67
2021/03/26 04:35:49;;;;;;;110.05;42.83;;;6.80;99.90;;;;;;4960507;28;20395;-67
2021/03/26 04:38:36;;;;;;;108.45;43.33;;;6.70;99.90;;;;;;4958143;28;20034;-67
2021/03/26 04:41:21;;;;;;;100.82;43.20;;;6.60;99.90;;;;;;4978654;28;20038;-67
2021/03/26 04:44:05;;;;;;;112.55;45.80;;;6.50;99.90;;;;;;4958372;28;20461;-67
2021/03/26 04:46:39;;;;;;;115.18;44.38;;;6.40;99.90;;;;;;4959930;28;20037;-67
2021/03/26 04:49:27;;;;;;;106.93;46.67;;;6.50;99.90;;;;;;4978458;28;20380;-66
2021/03/26 04:52:13;;;;;;;107.07;45.88;;;6.40;99.90;;;;;;4976455;28;20044;-66
2021/03/26 04:55:06;;;;;;;105.90;43.95;;;6.50;99.90;;;;;;4977148;28;20046;-67
2021/03/26 04:58:05;;;;;;;113.35;46.13;;;6.50;99.90;;;;;;4973564;28;20513;-67
2021/03/26 05:04:36;;;;;;;110.13;44.90;;;6.50;99.90;;;;;;4975229;28;20100;-66
2021/03/26 05:07:16;;;;;;;116.13;47.67;;;6.50;99.90;;;;;;4947075;28;20399;-66
2021/03/26 05:09:52;;;;;;;114.88;45.95;;;6.50;99.90;;;;;;4959086;28;20649;-66
2021/03/26 05:12:48;;;;;;;136.40;51.95;;;6.50;99.90;;;;;;4966043;28;20046;-66
2021/03/26 05:16:13;;;;;;;141.88;53.22;;;6.60;99.90;;;;;;4976453;28;20088;-67
2021/03/26 05:19:18;;;;;;;142.38;54.65;;;6.80;99.90;;;;;;4903758;29;20039;-66
2021/03/26 05:21:58;;;;;;;139.85;53.55;;;6.90;99.90;;;;;;4901096;29;20858;-66
2021/03/26 05:25:06;;;;;;;132.55;51.67;;;7.00;99.90;;;;;;4963289;28;20049;-66
2021/03/26 05:27:51;;;;;;;129.13;52.67;;;7.00;99.90;;;;;;4977813;28;20450;-66
2021/03/26 05:30:33;;;;;;;134.82;52.42;;;7.00;99.90;;;;;;4977833;28;20063;-67
2021/03/26 05:33:20;;;;;;;127.40;49.80;;;7.00;99.90;;;;;;4958875;28;20034;-66
2021/03/26 05:36:05;;;;;;;131.45;48.92;;;7.00;99.90;;;;;;4974352;28;20034;-66
2021/03/26 05:38:59;;;;;;;112.43;46.35;;;7.00;99.90;;;;;;4975333;28;20097;-66
2021/03/26 05:42:06;;;;;;;123.75;45.88;;;6.80;99.90;;;;;;4947748;28;20046;-66
2021/03/26 05:45:21;;;;;;;107.85;44.78;;;6.70;99.90;;;;;;4974865;28;20040;-66
2021/03/26 05:48:24;;;;;;;105.78;43.67;;;6.70;99.90;;;;;;4971209;28;20064;-67
2021/03/26 05:51:01;;;;;;;116.40;45.55;;;6.70;99.90;;;;;;4950170;28;20034;-66
2021/03/26 05:54:24;;;;;;;119.10;47.72;;;6.90;99.90;;;;;;4969115;28;20038;-67
2021/03/26 05:57:18;;;;;;;112.13;46.42;;;7.30;99.90;;;;;;4973438;28;20030;-66
2021/03/26 05:59:53;;;;;;;137.43;52.67;;;7.10;99.90;;;;;;4976160;28;20034;-66
2021/03/26 06:02:35;;;;;;;137.00;53.13;;;7.20;99.90;;;;;;4975672;28;20062;-67
2021/03/26 06:05:34;;;;;;;138.35;53.97;;;7.20;99.90;;;;;;4974137;28;20064;-66
2021/03/26 06:08:39;;;;;;;129.48;51.35;;;7.20;99.90;;;;;;4973367;28;20053;-67
2021/03/26 06:11:54;;;;;;;128.43;49.33;;;7.30;99.90;;;;;;4974224;28;20041;-67
2021/03/26 06:14:53;;;;;;;129.80;50.30;;;7.30;99.90;;;;;;4960464;28;20053;-67
2021/03/26 06:18:07;;;;;;;123.28;49.60;;;7.30;99.90;;;;;;4928733;28;20059;-67
2021/03/26 06:21:12;;;;;;;116.07;46.80;;;7.30;99.90;;;;;;4972543;28;20041;-67
2021/03/26 06:24:02;;;;;;;104.28;45.13;;;7.50;99.90;;;;;;4972825;28;20160;-67
2021/03/26 06:27:16;;;;;;;115.47;47.00;;;7.70;99.90;;;;;;4947953;28;20036;-67
2021/03/26 06:29:48;;;;;;;111.70;46.85;;;7.80;99.90;;;;;;4955246;28;20113;-67
2021/03/26 06:32:39;;;;;;;97.93;44.08;;;7.80;99.90;;;;;;4971888;28;20052;-68
2021/03/26 06:35:57;;;;;;;116.10;50.23;;;7.80;99.90;;;;;;4973328;28;20061;-66
2021/03/26 06:38:49;;;;;;;111.10;47.25;;;8.00;99.90;;;;;;4978467;28;20263;-66
2021/03/26 06:41:48;;;;;;;103.88;45.22;;;8.10;99.90;;;;;;4945577;28;20113;-66
2021/03/26 06:44:50;;;;;;;101.70;44.63;;;8.10;99.90;;;;;;4974996;28;20034;-66
2021/03/26 06:47:57;;;;;;;102.80;45.17;;;8.20;99.90;;;;;;4973256;28;20049;-66
2021/03/26 06:50:55;;;;;;;142.50;62.25;;;8.30;99.90;;;;;;4964242;28;20038;-66
2021/03/26 06:53:36;;;;;;;97.35;45.30;;;8.30;99.90;;;;;;4955188;28;20042;-67
2021/03/26 06:56:21;;;;;;;106.07;43.85;;;8.50;99.90;;;;;;4973837;28;20034;-67
2021/03/26 06:59:08;;;;;;;99.90;44.55;;;8.60;99.90;;;;;;4976877;28;20527;-66
2021/03/26 07:02:11;;;;;;;95.90;43.53;;;8.60;99.90;;;;;;4957318;28;20038;-66
2021/03/26 07:05:09;;;;;;;97.63;45.28;;;8.70;99.90;;;;;;4975925;28;20038;-67
2021/03/26 07:07:58;;;;;;;101.07;43.90;;;8.70;99.90;;;;;;4903776;28;20129;-66
2021/03/26 07:10:48;;;;;;;97.95;45.10;;;8.80;99.90;;;;;;4964532;28;20023;-66
2021/03/26 07:13:46;;;;;;;98.95;44.38;;;9.10;99.90;;;;;;4976086;28;20065;-67
2021/03/26 07:16:31;;;;;;;101.75;46.78;;;9.50;99.90;;;;;;4974677;28;20038;-67
2021/03/26 07:19:18;;;;;;;107.95;46.65;;;9.90;99.90;;;;;;4976918;28;20794;-67
2021/03/26 07:21:54;;;;;;;99.13;46.40;;;9.80;99.90;;;;;;4976898;28;20034;-67
2021/03/26 07:24:46;;;;;;;103.68;45.88;;;9.50;99.90;;;;;;4976778;28;20037;-67
2021/03/26 07:27:41;;;;;;;103.03;45.38;;;9.40;99.90;;;;;;4980646;28;20053;-67
2021/03/26 07:30:16;;;;;;;92.18;43.25;;;9.40;99.90;;;;;;4978007;28;20053;-67
2021/03/26 07:32:48;;;;;;;99.25;44.35;;;9.20;99.90;;;;;;4980712;28;20030;-66
2021/03/26 07:35:32;;;;;;;101.18;45.47;;;9.30;99.90;;;;;;4976200;28;20088;-67
2021/03/26 07:38:08;;;;;;;112.50;45.80;;;9.40;99.90;;;;;;4979768;28;20110;-67
2021/03/26 07:40:56;;;;;;;95.20;42.53;;;9.50;99.90;;;;;;4979428;28;20046;-67
2021/03/26 07:44:00;;;;;;;92.10;41.67;;;9.60;99.90;;;;;;4980193;28;20705;-67
2021/03/26 07:47:01;;;;;;;91.72;41.42;;;9.60;99.90;;;;;;4965416;28;20104;-67
2021/03/26 07:50:11;;;;;;;94.05;41.65;;;9.50;99.90;;;;;;4973884;28;20042;-65
2021/03/26 07:52:47;;;;;;;92.43;41.85;;;9.40;99.90;;;;;;4979750;28;20457;-66
2021/03/26 07:55:27;;;;;;;101.38;43.55;;;9.40;99.90;;;;;;4978909;28;20570;-66
2021/03/26 07:58:40;;;;;;;95.63;43.40;;;9.40;99.90;;;;;;4969624;28;20137;-66
2021/03/26 08:01:21;;;;;;;100.97;44.20;;;9.30;99.90;;;;;;4905140;28;20137;-65
2021/03/26 08:03:58;;;;;;;101.78;46.10;;;9.40;99.90;;;;;;4977818;28;20116;-65
2021/03/26 08:07:01;;;;;;;91.95;43.72;;;9.50;99.90;;;;;;4976990;28;20726;-65
2021/03/26 08:09:53;;;;;;;100.82;45.35;;;9.50;99.90;;;;;;4977797;28;20035;-65
2021/03/26 08:12:43;;;;;;;99.22;44.28;;;9.50;99.90;;;;;;4976155;28;20026;-65
2021/03/26 08:15:33;;;;;;;94.15;42.60;;;9.50;99.90;;;;;;4974379;28;20978;-65
2021/03/26 08:18:17;;;;;;;108.93;46.17;;;9.70;99.90;;;;;;4979885;28;20104;-65
2021/03/26 08:21:04;;;;;;;101.45;45.97;;;9.60;99.90;;;;;;4977793;28;20045;-65
2021/03/26 08:23:30;;;;;;;102.47;45.38;;;9.50;99.90;;;;;;4976495;28;20030;-65
2021/03/26 08:26:11;;;;;;;101.13;44.63;;;9.60;99.90;;;;;;4977778;28;20673;-65
2021/03/26 08:29:01;;;;;;;100.30;44.92;;;9.70;99.90;;;;;;4973255;28;20072;-65
2021/03/26 08:31:57;;;;;;;101.13;44.40;;;9.70;99.90;;;;;;4974774;28;20850;-65
2021/03/26 08:34:47;;;;;;;105.07;46.47;;;9.90;99.90;;;;;;4951245;28;20069;-65
2021/03/26 08:37:34;;;;;;;100.25;44.17;;;10.20;99.90;;;;;;4977307;28;20467;-65
2021/03/26 08:40:03;;;;;;;99.43;43.17;;;10.60;99.90;;;;;;4978133;28;20741;-65
2021/03/26 08:42:50;;;;;;;100.60;43.13;;;10.80;99.90;;;;;;4978506;28;20366;-65
2021/03/26 08:45:27;;;;;;;91.53;43.55;;;11.10;99.90;;;;;;4977522;28;20048;-65
2021/03/26 08:48:21;;;;;;;94.05;41.15;;;11.40;99.90;;;;;;4961672;28;20060;-65
2021/03/26 08:50:55;;;;;;;92.53;39.25;;;11.60;99.90;;;;;;4958565;28;20040;-65
2021/03/26 08:54:05;;;;;;;95.78;42.65;;;12.00;99.90;;;;;;4977424;28;20454;-65
2021/03/26 08:56:56;;;;;;;88.95;42.53;;;12.50;99.90;;;;;;4975774;28;20640;-65
2021/03/26 08:59:36;;;;;;;94.93;41.75;;;12.80;99.90;;;;;;4978272;28;20050;-64
2021/03/26 09:02:18;;;;;;;97.70;45.78;;;12.80;99.90;;;;;;4960486;28;20038;-64
2021/03/26 09:05:04;;;;;;;93.38;40.65;;;13.30;99.90;;;;;;4973957;28;20039;-65
2021/03/26 09:08:12;;;;;;;88.40;39.17;;;13.50;99.90;;;;;;4977052;28;20054;-65
2021/03/26 09:11:09;;;;;;;80.55;39.50;;;14.10;99.90;;;;;;4977102;28;20046;-65
2021/03/26 09:14:13;;;;;;;83.00;37.92;;;14.00;99.90;;;;;;4977397;28;20068;-65
2021/03/26 09:17:15;;;;;;;81.90;37.60;;;14.20;99.90;;;;;;4975746;28;20042;-64
2021/03/26 09:20:11;;;;;;;79.97;37.85;;;13.90;99.90;;;;;;4971662;28;20910;-65
2021/03/26 09:22:58;;;;;;;87.32;39.38;;;13.60;99.90;;;;;;4977396;28;20045;-65
2021/03/26 09:25:45;;;;;;;89.90;40.45;;;13.60;99.90;;;;;;4976005;28;20711;-65
2021/03/26 09:28:14;;;;;;;76.15;36.50;;;13.40;99.90;;;;;;4978148;28;20037;-64
2021/03/26 09:30:54;;;;;;;78.35;37.08;;;13.40;99.90;;;;;;4975471;28;20031;-65
2021/03/26 09:33:20;;;;;;;80.78;36.97;;;13.40;99.90;;;;;;4977257;28;20049;-65
2021/03/26 09:35:48;;;;;;;74.75;36.22;;;13.40;99.90;;;;;;4976408;28;20118;-65
2021/03/26 09:38:14;;;;;;;78.97;36.28;;;13.40;99.90;;;;;;4976401;28;20101;-65
2021/03/26 09:40:55;;;;;;;80.13;38.00;;;13.20;99.90;;;;;;4959925;28;20074;-65
2021/03/26 09:43:44;;;;;;;72.47;36.38;;;13.30;99.90;;;;;;4976210;28;20038;-65
2021/03/26 09:46:41;;;;;;;80.72;37.00;;;13.30;99.90;;;;;;4946994;28;20046;-65
2021/03/26 09:49:37;;;;;;;119.05;62.53;;;13.40;99.90;;;;;;4976335;28;20038;-65
2021/03/26 09:52:36;;;;;;;72.68;36.00;;;13.50;99.90;;;;;;4975812;28;20030;-65
2021/03/26 09:55:10;;;;;;;86.82;39.40;;;13.90;99.90;;;;;;4966538;28;20042;-65
2021/03/26 09:57:46;;;;;;;77.50;37.55;;;13.90;99.90;;;;;;4957593;28;20317;-66
2021/03/26 10:00:27;;;;;;;77.70;36.55;;;13.50;99.90;;;;;;4975731;28;20026;-65
2021/03/26 10:03:05;;;;;;;75.30;35.53;;;13.50;99.90;;;;;;4973905;28;20406;-66
2021/03/26 10:05:31;;;;;;;80.15;36.58;;;13.50;99.90;;;;;;4973510;28;20065;-65
2021/03/26 10:08:09;;;;;;;75.18;36.50;;;13.90;99.90;;;;;;4976375;28;20134;-65
2021/03/26 10:13:28;;;;;;;75.85;36.55;;;13.70;99.90;;;;;;4977313;28;21026;-66
2021/03/26 10:16:04;;;;;;;88.03;38.67;;;13.80;99.90;;;;;;4953006;28;20050;-65
2021/03/26 10:18:53;;;;;;;82.95;36.17;;;13.80;99.90;;;;;;4976062;28;20057;-65
2021/03/26 10:21:27;;;;;;;80.45;37.65;;;13.70;99.90;;;;;;4975056;28;20534;-65
2021/03/26 10:24:03;;;;;;;78.43;36.92;;;13.50;99.90;;;;;;4972061;28;20071;-65
2021/03/26 10:26:59;;;;;;;77.78;36.78;;;13.80;99.90;;;;;;4975079;28;20121;-66
2021/03/26 10:29:48;;;;;;;80.50;36.30;;;13.90;99.90;;;;;;4975957;28;20034;-66
2021/03/26 10:32:32;;;;;;;72.95;35.30;;;13.90;99.90;;;;;;4958728;28;20065;-66
2021/03/26 10:35:01;;;;;;;88.75;40.08;;;13.90;99.90;;;;;;4975217;28;20084;-66
2021/03/26 10:37:41;;;;;;;77.07;36.22;;;14.30;99.90;;;;;;4973173;28;20026;-66
2021/03/26 10:40:28;;;;;;;73.93;35.20;;;14.40;99.90;;;;;;4957197;28;20034;-66
2021/03/26 10:43:26;;;;;;;78.47;36.97;;;14.60;99.90;;;;;;4975759;28;20177;-65
2021/03/26 10:45:59;;;;;;;73.28;35.90;;;14.50;99.90;;;;;;4914593;28;20047;-66
2021/03/26 10:48:49;;;;;;;72.90;35.03;;;14.80;99.90;;;;;;4974393;28;20108;-66
2021/03/26 10:51:26;;;;;;;69.60;35.10;;;15.30;99.90;;;;;;4974341;28;20030;-66
2021/03/26 10:53:57;;;;;;;74.00;35.05;;;15.60;99.90;;;;;;4973876;28;20418;-66
2021/03/26 10:56:38;;;;;;;73.90;36.05;;;15.60;99.70;;;;;;4974096;28;20104;-65
2021/03/26 10:59:24;;;;;;;70.53;35.78;;;15.60;99.90;;;;;;4956313;28;20035;-66
2021/03/26 11:01:52;;;;;;;75.85;36.80;;;15.60;99.90;;;;;;4975559;28;20125;-65
2021/03/26 11:04:18;;;;;;;79.40;36.33;;;15.50;99.90;;;;;;4955178;28;20141;-65
2021/03/26 11:06:56;;;;;;;75.35;35.40;;;15.80;99.90;;;;;;4974039;28;20032;-65
2021/03/26 11:09:34;;;;;;;70.55;36.13;;;15.70;99.70;;;;;;4973815;28;20617;-67
2021/03/26 11:12:15;;;;;;;79.22;36.95;;;16.50;98.20;;;;;;4974923;28;20349;-65
2021/03/26 11:14:59;;;;;;;69.85;34.35;;;16.90;96.60;;;;;;4975148;28;20045;-66
2021/03/26 11:17:39;;;;;;;73.65;34.45;;;16.80;96.70;;;;;;4977189;28;20578;-66
2021/03/26 11:20:19;;;;;;;73.38;36.80;;;16.70;98.10;;;;;;4976393;28;20038;-66
2021/03/26 11:23:01;;;;;;;75.93;37.72;;;17.00;98.00;;;;;;4975733;28;20065;-66
2021/03/26 11:25:36;;;;;;;74.80;36.17;;;17.30;97.50;;;;;;4974680;28;20085;-66
2021/03/26 11:28:12;;;;;;;78.85;36.63;;;17.30;97.10;;;;;;4958212;28;20089;-65
2021/03/26 11:30:41;;;;;;;75.18;35.67;;;17.50;96.30;;;;;;4974731;28;20039;-65
2021/03/26 11:33:24;;;;;;;78.93;36.65;;;17.70;94.80;;;;;;4957881;28;20042;-68
2021/03/26 11:35:55;;;;;;;73.13;35.80;;;17.90;94.90;;;;;;4973253;28;20120;-66
2021/03/26 11:38:26;;;;;;;68.72;34.38;;;18.00;94.30;;;;;;4975620;28;20054;-65
2021/03/26 11:41:06;;;;;;;77.30;36.15;;;18.30;93.40;;;;;;4966731;28;20046;-65
2021/03/26 11:43:42;;;;;;;68.40;35.03;;;18.10;94.30;;;;;;4962478;28;20148;-66
2021/03/26 11:46:16;;;;;;;72.32;36.55;;;18.30;93.00;;;;;;4952257;28;20885;-69
2021/03/26 11:49:03;;;;;;;70.10;34.55;;;18.40;92.90;;;;;;4975361;28;20038;-69
2021/03/26 11:51:48;;;;;;;66.47;32.90;;;18.50;92.30;;;;;;4975519;28;20030;-69
2021/03/26 11:54:42;;;;;;;66.10;33.17;;;18.40;91.50;;;;;;4975098;28;20494;-69
2021/03/26 11:57:08;;;;;;;72.32;33.83;;;18.70;90.90;;;;;;4956496;28;20034;-69
2021/03/26 11:59:54;;;;;;;74.35;34.38;;;18.90;88.80;;;;;;4974503;28;20741;-69
2021/03/26 12:02:25;;;;;;;69.25;33.25;;;19.20;89.60;;;;;;4949499;28;20034;-69
2021/03/26 12:05:06;;;;;;;63.67;31.65;;;19.30;85.00;;;;;;4974767;28;20070;-69
2021/03/26 12:07:48;;;;;;;68.22;34.70;;;19.10;84.60;;;;;;4974564;28;20026;-69
2021/03/26 12:10:13;;;;;;;64.03;31.63;;;18.90;87.20;;;;;;4975706;28;20085;-69
2021/03/26 12:12:49;;;;;;;72.60;35.20;;;19.10;84.90;;;;;;4979355;28;20041;-69
2021/03/26 12:15:23;;;;;;;69.07;34.88;;;19.40;85.50;;;;;;4977588;28;20158;-64
2021/03/26 12:18:05;;;;;;;75.68;34.70;;;19.60;81.30;;;;;;4959305;28;20085;-65
2021/03/26 12:20:40;;;;;;;75.18;35.13;;;19.60;79.40;;;;;;4978935;28;20081;-65
2021/03/26 12:23:20;;;;;;;65.77;33.57;;;19.50;78.20;;;;;;4978544;28;20558;-68
2021/03/26 12:25:59;;;;;;;66.15;32.92;;;19.20;75.80;;;;;;4975999;28;20534;-69
2021/03/26 12:29:04;;;;;;;66.05;33.90;;;19.20;77.30;;;;;;4977609;28;20516;-69
2021/03/26 12:31:57;;;;;;;67.10;32.05;;;19.20;77.70;;;;;;4978509;28;20141;-68
2021/03/26 12:34:41;;;;;;;67.55;33.70;;;18.70;78.90;;;;;;4976574;28;20038;-69
2021/03/26 12:37:10;;;;;;;70.63;35.03;;;19.20;78.80;;;;;;4977394;28;20213;-68
2021/03/26 12:39:44;;;;;;;71.80;35.15;;;19.40;77.20;;;;;;4978351;28;20038;-68
2021/03/26 12:42:26;;;;;;;65.03;34.13;;;19.30;78.00;;;;;;4960932;28;20092;-68
2021/03/26 12:44:54;;;;;;;76.88;35.33;;;20.10;75.30;;;;;;4958718;28;20038;-68
2021/03/26 12:47:39;;;;;;;62.85;32.72;;;20.70;71.30;;;;;;4974389;28;20042;-68
2021/03/26 12:50:16;;;;;;;70.40;34.78;;;21.60;67.20;;;;;;4977009;28;20034;-68
2021/03/26 12:52:55;;;;;;;75.22;36.33;;;22.20;65.60;;;;;;4976759;28;20797;-68
2021/03/26 12:55:32;;;;;;;77.30;36.72;;;22.40;62.80;;;;;;4976984;28;20820;-68
2021/03/26 12:58:11;;;;;;;70.97;36.17;;;21.20;64.90;;;;;;4968166;28;20727;-67
2021/03/26 13:00:51;;;;;;;84.75;37.55;;;20.10;68.20;;;;;;4977917;28;20138;-67
2021/03/26 13:03:36;;;;;;;76.63;36.42;;;19.30;72.30;;;;;;4976665;28;20030;-65
2021/03/26 13:06:18;;;;;;;77.30;36.28;;;18.80;75.00;;;;;;4975005;28;20038;-66
2021/03/26 13:08:46;;;;;;;74.88;35.72;;;18.40;77.90;;;;;;4975054;28;20558;-66
2021/03/26 13:11:36;;;;;;;71.90;36.08;;;18.50;79.00;;;;;;4977642;28;20146;-66
2021/03/26 13:14:04;;;;;;;69.70;35.72;;;19.10;77.10;;;;;;4977831;28;20120;-69
2021/03/26 13:16:44;;;;;;;72.28;35.60;;;19.80;72.50;;;;;;4977115;28;20041;-69
2021/03/26 13:19:21;;;;;;;72.47;35.40;;;20.60;69.50;;;;;;4977422;28;20030;-68
2021/03/26 13:22:18;;;;;;;71.28;34.75;;;21.20;66.20;;;;;;4975845;28;20038;-68
2021/03/26 13:24:54;;;;;;;76.00;36.65;;;20.90;65.80;;;;;;4975028;28;20049;-68
2021/03/26 13:27:20;;;;;;;71.38;35.35;;;20.40;67.30;;;;;;4975282;28;20038;-68
2021/03/26 13:29:58;;;;;;;76.22;38.50;;;20.40;67.10;;;;;;4978098;28;20052;-68
2021/03/26 13:32:34;;;;;;;63.90;32.92;;;20.70;66.80;;;;;;4978165;28;20054;-68
2021/03/26 13:35:01;;;;;;;73.75;35.70;;;21.10;68.50;;;;;;4976350;28;20034;-68
2021/03/26 13:37:32;;;;;;;71.63;35.42;;;21.60;63.30;;;;;;4976941;28;20902;-68
2021/03/26 13:40:17;;;;;;;76.47;36.83;;;21.00;65.20;;;;;;4977726;28;20038;-68
2021/03/26 13:42:45;;;;;;;;;;;20.30;66.60;;;;;;4973869;28;20096;-65
2021/03/26 13:45:21;;;;;;;74.43;35.15;;;19.70;66.50;;;;;;4975061;28;19914;-67
2021/03/26 13:47:58;;;;;;;73.03;35.72;;;18.90;69.20;;;;;;4976775;28;20030;-66
2021/03/26 13:50:36;;;;;;;83.07;37.78;;;18.80;73.00;;;;;;4977157;28;20034;-67
2021/03/26 13:53:14;;;;;;;72.60;35.60;;;19.60;71.10;;;;;;4961147;28;20887;-67